createdAt,value
2023-02-21T00:01:37.330Z,10.37
2023-02-21T00:04:22.288Z,10.34
2023-02-21T00:07:07.025Z,10.34
2023-02-21T00:09:51.794Z,10.35
2023-02-21T00:12:36.500Z,10.33
2023-02-21T00:15:21.249Z,10.31
2023-02-21T00:18:06.152Z,10.28
2023-02-21T00:20:50.903Z,10.26
2023-02-21T00:23:35.765Z,10.29
2023-02-21T00:26:20.564Z,10.16
2023-02-21T00:29:05.323Z,10.27
2023-02-21T00:31:50.066Z,10.29
2023-02-21T00:34:34.865Z,10.24
2023-02-21T00:37:19.618Z,10.26
2023-02-21T00:40:04.466Z,10.27
2023-02-21T00:42:49.256Z,10.25
2023-02-21T00:45:34.527Z,10.22
2023-02-21T00:48:19.432Z,10.29
2023-02-21T00:51:05.153Z,10.23
2023-02-21T00:53:49.941Z,10.23
2023-02-21T00:56:34.505Z,10.29
2023-02-21T00:59:19.169Z,10.25
2023-02-21T01:02:03.905Z,10.25
2023-02-21T01:04:48.737Z,10.26
2023-02-21T01:07:33.429Z,10.29
2023-02-21T01:10:18.193Z,10.29
2023-02-21T01:13:03.222Z,10.17
2023-02-21T01:15:47.862Z,10.19
2023-02-21T01:18:32.765Z,10.13
2023-02-21T01:21:17.600Z,10.32
2023-02-21T01:24:02.514Z,10.33
2023-02-21T01:26:47.227Z,10.26
2023-02-21T01:29:32.036Z,10.19
2023-02-21T01:32:16.749Z,10.16
2023-02-21T01:35:01.728Z,10.18
2023-02-21T01:37:46.446Z,10.10
2023-02-21T01:40:34.717Z,10.24
2023-02-21T01:43:19.496Z,10.19
2023-02-21T01:46:07.876Z,10.23
2023-02-21T01:48:53.981Z,10.23
2023-02-21T01:51:44.507Z,10.21
2023-02-21T01:54:30.792Z,10.20
2023-02-21T01:57:19.671Z,10.27
2023-02-21T02:00:04.919Z,10.20
2023-02-21T02:03:07.315Z,10.28
2023-02-21T02:05:52.556Z,10.23
2023-02-21T02:08:41.815Z,10.26
2023-02-21T02:11:44.975Z,10.24
2023-02-21T02:14:34.621Z,10.27
2023-02-21T02:17:14.272Z,10.33
2023-02-21T02:19:52.374Z,10.33
2023-02-21T02:22:31.402Z,10.31
2023-02-21T02:25:12.084Z,10.30
2023-02-21T02:27:44.366Z,10.28
2023-02-21T02:30:38.591Z,10.24
2023-02-21T02:33:30.946Z,10.24
2023-02-21T02:36:02.576Z,10.24
2023-02-21T02:38:47.360Z,10.17
2023-02-21T02:41:26.007Z,10.14
2023-02-21T02:44:10.293Z,10.09
2023-02-21T02:46:39.849Z,9.99
2023-02-21T02:49:12.718Z,10.09
2023-02-21T02:51:39.198Z,10.07
2023-02-21T02:54:06.017Z,10.02
2023-02-21T02:56:33.725Z,10.08
2023-02-21T02:59:07.004Z,10.08
2023-02-21T03:01:36.054Z,10.11
2023-02-21T03:04:43.281Z,10.11
2023-02-21T03:07:31.339Z,10.12
2023-02-21T03:10:22.466Z,10.09
2023-02-21T03:13:02.326Z,10.15
2023-02-21T03:15:47.786Z,10.23
2023-02-21T03:18:33.502Z,10.13
2023-02-21T03:21:03.738Z,10.18
2023-02-21T03:23:34.422Z,10.19
2023-02-21T03:26:06.681Z,10.18
2023-02-21T03:28:33.924Z,10.14
2023-02-21T03:31:03.751Z,10.15
2023-02-21T03:33:30.290Z,10.13
2023-02-21T03:36:00.183Z,10.10
2023-02-21T03:38:30.714Z,10.18
2023-02-21T03:40:57.662Z,10.23
2023-02-21T03:43:24.049Z,10.16
2023-02-21T03:45:50.415Z,10.21
2023-02-21T03:48:26.209Z,10.21
2023-02-21T03:50:57.705Z,10.15
2023-02-21T03:53:24.089Z,10.14
2023-02-21T03:55:50.502Z,10.16
2023-02-21T03:58:16.967Z,10.18
2023-02-21T04:00:43.366Z,10.12
2023-02-21T04:03:10.883Z,10.13
2023-02-21T04:05:37.312Z,10.09
2023-02-21T04:08:03.720Z,10.04
2023-02-21T04:10:30.663Z,10.09
2023-02-21T04:12:58.979Z,10.10
2023-02-21T04:15:25.429Z,10.15
2023-02-21T04:17:51.772Z,10.10
2023-02-21T04:20:18.397Z,10.13
2023-02-21T04:22:51.849Z,10.15
2023-02-21T04:25:24.428Z,10.07
2023-02-21T04:27:50.791Z,10.01
2023-02-21T04:30:17.336Z,9.97
2023-02-21T04:32:43.774Z,10.10
2023-02-21T04:35:10.133Z,10.06
2023-02-21T04:37:36.473Z,10.16
2023-02-21T04:40:02.949Z,10.00
2023-02-21T04:42:29.306Z,10.15
2023-02-21T04:45:00.306Z,10.11
2023-02-21T04:47:27.192Z,10.00
2023-02-21T04:49:53.557Z,10.12
2023-02-21T04:52:22.552Z,10.17
2023-02-21T04:54:48.966Z,10.09
2023-02-21T04:57:17.088Z,10.07
2023-02-21T04:59:43.449Z,10.09
2023-02-21T05:02:09.965Z,10.08
2023-02-21T05:04:37.326Z,9.95
2023-02-21T05:07:04.674Z,10.07
2023-02-21T05:09:31.461Z,10.08
2023-02-21T05:11:57.831Z,10.15
2023-02-21T05:14:24.229Z,10.08
2023-02-21T05:16:50.661Z,10.12
2023-02-21T05:19:29.752Z,10.11
2023-02-21T05:21:58.188Z,10.12
2023-02-21T05:24:26.045Z,10.15
2023-02-21T05:26:52.817Z,10.11
2023-02-21T05:29:19.291Z,10.15
2023-02-21T05:31:47.109Z,10.12
2023-02-21T05:34:14.646Z,10.12
2023-02-21T05:36:41.283Z,10.15
2023-02-21T05:39:08.887Z,10.16
2023-02-21T05:41:35.694Z,10.11
2023-02-21T05:44:03.072Z,10.12
2023-02-21T05:46:33.072Z,10.10
2023-02-21T05:49:01.065Z,10.12
2023-02-21T05:51:28.174Z,10.01
2023-02-21T05:53:54.605Z,10.13
2023-02-21T05:56:21.732Z,10.18
2023-02-21T05:58:48.181Z,10.14
2023-02-21T06:01:15.029Z,10.10
2023-02-21T06:03:41.737Z,10.15
2023-02-21T06:06:08.159Z,10.11
2023-02-21T06:08:46.485Z,10.09
2023-02-21T06:11:14.020Z,10.12
2023-02-21T06:13:41.140Z,10.10
2023-02-21T06:16:07.691Z,10.10
2023-02-21T06:18:34.372Z,10.07
2023-02-21T06:21:00.738Z,10.13
2023-02-21T06:23:27.151Z,10.07
2023-02-21T06:25:53.535Z,10.16
2023-02-21T06:28:19.895Z,10.13
2023-02-21T06:30:46.402Z,10.12
2023-02-21T06:33:12.809Z,10.18
2023-02-21T06:35:39.144Z,10.14
2023-02-21T06:38:05.481Z,10.15
2023-02-21T06:40:31.839Z,10.13
2023-02-21T06:42:58.206Z,10.18
2023-02-21T06:45:24.560Z,10.18
2023-02-21T06:47:50.989Z,10.17
2023-02-21T06:50:17.423Z,10.14
2023-02-21T06:52:43.799Z,10.14
2023-02-21T06:55:10.200Z,10.09
2023-02-21T06:57:36.570Z,10.16
2023-02-21T07:00:04.869Z,10.07
2023-02-21T07:02:31.512Z,10.02
2023-02-21T07:04:58.003Z,10.14
2023-02-21T07:07:24.385Z,10.18
2023-02-21T07:09:50.783Z,10.08
2023-02-21T07:12:17.143Z,10.09
2023-02-21T07:14:43.495Z,10.19
2023-02-21T07:17:09.869Z,9.96
2023-02-21T07:19:36.227Z,10.10
2023-02-21T07:22:03.093Z,10.11
2023-02-21T07:24:29.480Z,10.21
2023-02-21T07:26:56.518Z,10.10
2023-02-21T07:29:22.931Z,10.15
2023-02-21T07:31:49.438Z,10.05
2023-02-21T07:34:16.671Z,10.01
2023-02-21T07:36:43.181Z,10.18
2023-02-21T07:39:09.542Z,10.18
2023-02-21T07:41:35.950Z,10.14
2023-02-21T07:44:02.534Z,10.04
2023-02-21T07:46:29.406Z,10.17
2023-02-21T07:48:56.331Z,10.04
2023-02-21T07:51:22.727Z,10.20
2023-02-21T07:53:49.100Z,10.32
2023-02-21T07:56:15.458Z,10.41
2023-02-21T07:58:41.823Z,10.29
2023-02-21T08:01:08.326Z,10.41
2023-02-21T08:03:34.684Z,10.47
2023-02-21T08:06:01.290Z,10.43
2023-02-21T08:08:27.683Z,10.37
2023-02-21T08:10:54.045Z,10.42
2023-02-21T08:13:20.425Z,10.51
2023-02-21T08:15:46.847Z,10.43
2023-02-21T08:18:24.189Z,10.58
2023-02-21T08:20:52.179Z,10.61
2023-02-21T08:23:18.752Z,10.60
2023-02-21T08:25:46.231Z,10.66
2023-02-21T08:28:13.061Z,10.73
2023-02-21T08:30:39.687Z,10.71
2023-02-21T08:33:06.214Z,10.88
2023-02-21T08:35:32.656Z,10.88
2023-02-21T08:38:02.953Z,10.78
2023-02-21T08:40:31.094Z,10.74
2023-02-21T08:42:59.036Z,10.72
2023-02-21T08:45:27.205Z,10.81
2023-02-21T08:47:54.298Z,10.71
2023-02-21T08:50:22.878Z,10.84
2023-02-21T08:52:50.519Z,10.83
2023-02-21T08:55:17.811Z,11.13
2023-02-21T08:57:44.204Z,11.00
2023-02-21T09:00:11.800Z,11.06
2023-02-21T09:02:41.550Z,10.95
2023-02-21T09:05:18.763Z,11.06
2023-02-21T09:07:48.294Z,10.94
2023-02-21T09:10:14.853Z,11.01
2023-02-21T09:12:41.396Z,11.03
2023-02-21T09:15:08.958Z,11.06
2023-02-21T09:17:35.390Z,11.19
2023-02-21T09:20:07.408Z,11.11
2023-02-21T09:22:34.304Z,11.11
2023-02-21T09:25:01.346Z,11.03
2023-02-21T09:27:37.022Z,11.07
2023-02-21T09:30:15.550Z,11.15
2023-02-21T09:32:42.312Z,11.17
2023-02-21T09:35:13.858Z,11.06
2023-02-21T09:37:42.243Z,11.03
2023-02-21T09:41:01.593Z,11.02
2023-02-21T09:43:45.762Z,11.22
2023-02-21T09:46:21.346Z,11.17
2023-02-21T09:48:48.633Z,11.24
2023-02-21T09:51:16.692Z,11.15
2023-02-21T09:53:46.326Z,11.18
2023-02-21T09:56:28.305Z,11.24
2023-02-21T09:58:56.615Z,11.29
2023-02-21T10:01:35.045Z,11.37
2023-02-21T10:04:08.848Z,11.29
2023-02-21T10:06:51.933Z,11.33
2023-02-21T10:09:44.154Z,11.35
2023-02-21T10:12:16.553Z,11.43
2023-02-21T10:15:02.924Z,11.38
2023-02-21T10:17:42.820Z,11.29
2023-02-21T10:20:15.869Z,11.33
2023-02-21T10:22:46.341Z,11.30
2023-02-21T10:25:29.232Z,11.46
2023-02-21T10:27:58.345Z,11.50
2023-02-21T10:30:32.901Z,11.15
2023-02-21T10:32:59.314Z,11.33
2023-02-21T10:35:25.824Z,11.18
2023-02-21T10:37:57.828Z,11.24
2023-02-21T10:40:38.268Z,11.28
2023-02-21T10:43:39.308Z,11.04
2023-02-21T10:46:13.336Z,11.07
2023-02-21T10:48:42.691Z,11.25
2023-02-21T10:51:12.924Z,11.32
2023-02-21T10:53:44.997Z,11.27
2023-02-21T10:56:20.441Z,11.26
2023-02-21T10:58:51.789Z,11.17
2023-02-21T11:01:21.723Z,11.35
2023-02-21T11:03:56.955Z,11.30
2023-02-21T11:06:37.219Z,11.26
2023-02-21T11:09:35.407Z,11.39
2023-02-21T11:12:02.500Z,11.35
2023-02-21T11:14:30.302Z,11.40
2023-02-21T11:17:19.157Z,11.45
2023-02-21T11:19:48.564Z,11.55
2023-02-21T11:22:17.812Z,11.49
2023-02-21T11:24:52.138Z,11.54
2023-02-21T11:27:18.623Z,11.60
2023-02-21T11:29:49.034Z,11.57
2023-02-21T11:32:45.533Z,11.39
2023-02-21T11:35:23.416Z,11.51
2023-02-21T11:37:49.729Z,11.52
2023-02-21T11:40:30.276Z,11.44
2023-02-21T11:43:28.949Z,11.50
2023-02-21T11:46:16.172Z,11.44
2023-02-21T11:49:05.921Z,11.47
2023-02-21T11:51:35.960Z,11.53
2023-02-21T11:54:04.464Z,11.65
2023-02-21T11:56:50.332Z,11.69
2023-02-21T11:59:28.644Z,11.72
2023-02-21T12:02:13.359Z,11.71
2023-02-21T12:04:59.699Z,11.68
2023-02-21T12:08:08.052Z,11.61
2023-02-21T12:10:49.933Z,11.53
2023-02-21T12:13:44.313Z,11.46
2023-02-21T12:16:43.013Z,11.48
2023-02-21T12:19:20.836Z,11.54
2023-02-21T12:22:01.325Z,11.51
2023-02-21T12:25:01.437Z,11.53
2023-02-21T12:27:34.049Z,11.56
2023-02-21T12:30:27.462Z,11.61
2023-02-21T12:33:08.724Z,11.65
2023-02-21T12:35:45.330Z,11.60
2023-02-21T12:38:27.652Z,11.63
2023-02-21T12:41:31.404Z,11.48
2023-02-21T12:44:02.019Z,11.55
2023-02-21T12:46:34.048Z,11.58
2023-02-21T12:49:15.478Z,11.61
2023-02-21T12:51:47.030Z,11.60
2023-02-21T12:54:28.237Z,11.60
2023-02-21T12:57:01.552Z,11.57
2023-02-21T12:59:33.467Z,11.72
2023-02-21T13:02:09.664Z,11.67
2023-02-21T13:04:52.469Z,11.77
2023-02-21T13:07:27.323Z,11.73
2023-02-21T13:10:27.827Z,11.84
2023-02-21T13:13:01.031Z,11.89
2023-02-21T13:15:30.436Z,11.93
2023-02-21T13:18:11.354Z,11.90
2023-02-21T13:20:42.567Z,11.78
2023-02-21T13:24:05.512Z,11.83
2023-02-21T13:26:47.752Z,11.90
2023-02-21T13:29:24.882Z,11.89
2023-02-21T13:32:09.765Z,11.88
2023-02-21T13:34:59.829Z,11.93
2023-02-21T13:37:29.934Z,11.97
2023-02-21T13:40:09.576Z,11.91
2023-02-21T13:42:38.591Z,11.95
2023-02-21T13:45:23.481Z,11.91
2023-02-21T13:47:52.801Z,11.81
2023-02-21T13:50:37.622Z,11.88
2023-02-21T13:53:33.119Z,11.83
2023-02-21T13:55:59.497Z,11.95
2023-02-21T13:58:46.411Z,12.01
2023-02-21T14:01:29.656Z,11.75
2023-02-21T14:03:57.809Z,11.71
2023-02-21T14:06:36.799Z,11.70
2023-02-21T14:09:17.085Z,11.62
2023-02-21T14:11:54.112Z,11.61
2023-02-21T14:14:20.480Z,11.76
2023-02-21T14:16:51.703Z,11.57
2023-02-21T14:19:25.562Z,11.55
2023-02-21T14:22:03.299Z,11.42
2023-02-21T14:24:37.186Z,11.56
2023-02-21T14:29:42.267Z,11.60
2023-02-21T14:32:08.699Z,11.49
2023-02-21T14:34:40.564Z,11.53
2023-02-21T14:37:19.755Z,11.64
2023-02-21T14:39:59.968Z,11.47
2023-02-21T14:42:35.364Z,11.59
2023-02-21T14:45:18.489Z,11.66
2023-02-21T14:48:10.997Z,11.40
2023-02-21T14:51:08.693Z,11.42
2023-02-21T14:53:56.759Z,11.36
2023-02-21T14:56:47.988Z,11.36
2023-02-21T14:59:38.758Z,11.26
2023-02-21T15:02:15.269Z,11.23
2023-02-21T15:04:49.661Z,11.28
2023-02-21T15:07:22.250Z,11.02
2023-02-21T15:10:06.992Z,11.15
2023-02-21T15:12:39.798Z,11.11
2023-02-21T15:15:14.316Z,11.18
2023-02-21T15:17:40.879Z,11.14
2023-02-21T15:20:16.237Z,11.19
2023-02-21T15:22:42.984Z,11.16
2023-02-21T15:25:09.377Z,11.11
2023-02-21T15:27:57.747Z,11.01
2023-02-21T15:30:33.891Z,11.01
2023-02-21T15:33:21.232Z,11.01
2023-02-21T15:35:52.977Z,11.13
2023-02-21T15:38:42.334Z,10.96
2023-02-21T15:41:24.746Z,11.05
2023-02-21T15:43:57.064Z,11.10
2023-02-21T15:46:31.975Z,11.09
2023-02-21T15:49:02.800Z,10.84
2023-02-21T15:51:30.214Z,11.00
2023-02-21T15:54:22.506Z,10.92
2023-02-21T15:57:09.833Z,10.78
2023-02-21T15:59:37.563Z,10.87
2023-02-21T16:02:14.802Z,10.84
2023-02-21T16:04:46.709Z,10.82
2023-02-21T16:07:33.981Z,10.84
2023-02-21T16:10:07.257Z,10.80
2023-02-21T16:12:40.489Z,10.76
2023-02-21T16:15:18.756Z,10.72
2023-02-21T16:17:46.453Z,10.72
2023-02-21T16:20:18.900Z,10.71
2023-02-21T16:23:08.703Z,10.79
2023-02-21T16:25:35.337Z,10.65
2023-02-21T16:28:02.186Z,10.63
2023-02-21T16:30:30.896Z,10.75
2023-02-21T16:33:03.298Z,10.70
2023-02-21T16:35:30.814Z,10.68
2023-02-21T16:37:59.266Z,10.55
2023-02-21T16:40:28.566Z,10.60
2023-02-21T16:42:56.170Z,10.50
2023-02-21T16:45:23.310Z,10.42
2023-02-21T16:47:56.663Z,10.47
2023-02-21T16:50:36.800Z,10.46
2023-02-21T16:53:04.506Z,10.34
2023-02-21T16:55:31.512Z,10.54
2023-02-21T16:58:16.849Z,10.55
2023-02-21T17:00:43.217Z,10.46
2023-02-21T17:03:09.587Z,10.44
2023-02-21T17:05:36.033Z,10.44
2023-02-21T17:08:03.073Z,10.45
2023-02-21T17:10:29.454Z,10.35
2023-02-21T17:12:55.874Z,10.36
2023-02-21T17:15:23.596Z,10.38
2023-02-21T17:17:53.498Z,10.40
2023-02-21T17:20:21.601Z,10.39
2023-02-21T17:22:48.312Z,10.37
2023-02-21T17:25:15.188Z,10.31
2023-02-21T17:27:41.686Z,10.41
2023-02-21T17:30:08.726Z,10.42
2023-02-21T17:32:35.125Z,10.42
2023-02-21T17:35:01.549Z,10.42
2023-02-21T17:37:28.006Z,10.18
2023-02-21T17:39:55.728Z,10.33
2023-02-21T17:42:24.318Z,10.35
2023-02-21T17:44:51.946Z,10.35
2023-02-21T17:47:20.033Z,10.29
2023-02-21T17:49:51.317Z,10.33
2023-02-21T17:52:18.119Z,10.26
2023-02-21T17:54:44.548Z,10.27
2023-02-21T17:57:11.029Z,10.26
2023-02-21T17:59:38.127Z,10.19
2023-02-21T18:02:05.678Z,10.16
2023-02-21T18:04:32.165Z,10.21
2023-02-21T18:06:58.670Z,10.21
2023-02-21T18:09:25.667Z,10.23
2023-02-21T18:11:55.132Z,10.09
2023-02-21T18:14:23.251Z,10.12
2023-02-21T18:16:49.672Z,10.16
2023-02-21T18:19:16.049Z,10.07
2023-02-21T18:21:45.520Z,10.10
2023-02-21T18:24:13.338Z,10.10
2023-02-21T18:26:39.897Z,10.04
2023-02-21T18:29:07.232Z,10.01
2023-02-21T18:31:34.954Z,9.93
2023-02-21T18:34:03.024Z,10.01
2023-02-21T18:36:30.325Z,9.84
2023-02-21T18:38:57.005Z,10.05
2023-02-21T18:41:23.442Z,9.95
2023-02-21T18:43:51.016Z,10.04
2023-02-21T18:46:20.170Z,9.96
2023-02-21T18:48:49.213Z,10.00
2023-02-21T18:51:18.812Z,10.10
2023-02-21T18:53:46.854Z,10.08
2023-02-21T18:56:15.874Z,10.08
2023-02-21T18:58:42.250Z,10.06
2023-02-21T19:01:11.492Z,10.07
2023-02-21T19:03:38.264Z,9.99
2023-02-21T19:06:07.506Z,9.89
2023-02-21T19:08:33.905Z,9.89
2023-02-21T19:11:00.308Z,9.94
2023-02-21T19:13:26.659Z,9.78
2023-02-21T19:15:53.105Z,9.92
2023-02-21T19:18:19.534Z,9.93
2023-02-21T19:20:46.022Z,9.95
2023-02-21T19:23:13.060Z,9.91
2023-02-21T19:25:39.556Z,9.96
2023-02-21T19:28:06.829Z,10.00
2023-02-21T19:30:36.178Z,9.96
2023-02-21T19:33:07.569Z,9.95
2023-02-21T19:35:35.223Z,9.80
2023-02-21T19:38:04.494Z,9.94
2023-02-21T19:40:31.054Z,9.95
2023-02-21T19:42:57.457Z,9.85
2023-02-21T19:45:23.843Z,9.77
2023-02-21T19:47:50.243Z,9.87
2023-02-21T19:50:17.359Z,9.89
2023-02-21T19:52:46.194Z,9.76
2023-02-21T19:55:13.662Z,9.78
2023-02-21T19:57:40.062Z,9.73
2023-02-21T20:00:10.768Z,9.84
2023-02-21T20:02:37.319Z,9.83
2023-02-21T20:05:04.519Z,9.84
2023-02-21T20:07:30.921Z,9.86
2023-02-21T20:09:57.719Z,9.82
2023-02-21T20:12:24.283Z,9.82
2023-02-21T20:14:51.284Z,9.87
2023-02-21T20:17:18.084Z,9.78
2023-02-21T20:19:44.771Z,9.80
2023-02-21T20:22:11.474Z,9.74
2023-02-21T20:24:37.867Z,9.81
2023-02-21T20:27:04.680Z,9.76
2023-02-21T20:29:31.039Z,9.86
2023-02-21T20:31:58.759Z,9.82
2023-02-21T20:34:25.219Z,9.73
2023-02-21T20:36:51.788Z,9.87
2023-02-21T20:39:28.244Z,9.86
2023-02-21T20:41:56.025Z,9.78
2023-02-21T20:44:22.570Z,9.86
2023-02-21T20:46:49.425Z,9.88
2023-02-21T20:49:16.352Z,9.84
2023-02-21T20:51:43.898Z,9.86
2023-02-21T20:54:19.621Z,9.80
2023-02-21T20:56:47.199Z,9.66
2023-02-21T20:59:17.639Z,9.75
2023-02-21T21:01:48.199Z,9.83
2023-02-21T21:04:19.580Z,9.87
2023-02-21T21:06:47.119Z,9.82
2023-02-21T21:09:17.737Z,9.76
2023-02-21T21:11:44.928Z,9.75
2023-02-21T21:14:12.562Z,9.80
2023-02-21T21:16:40.264Z,9.71
2023-02-21T21:19:06.904Z,9.75
2023-02-21T21:21:33.388Z,9.64
2023-02-21T21:24:00.534Z,9.78
2023-02-21T21:26:27.832Z,9.71
2023-02-21T21:28:54.222Z,9.58
2023-02-21T21:31:20.653Z,9.69
2023-02-21T21:33:47.024Z,9.67
2023-02-21T21:36:13.465Z,9.56
2023-02-21T21:38:40.803Z,9.64
2023-02-21T21:41:15.194Z,9.68
2023-02-21T21:43:46.005Z,9.65
2023-02-21T21:46:13.589Z,9.65
2023-02-21T21:48:44.263Z,9.53
2023-02-21T21:51:11.603Z,9.66
2023-02-21T21:53:41.452Z,9.70
2023-02-21T21:56:08.290Z,9.65
2023-02-21T21:58:34.943Z,9.62
2023-02-21T22:01:05.272Z,9.74
2023-02-21T22:03:32.118Z,9.60
2023-02-21T22:06:00.521Z,9.62
2023-02-21T22:08:28.332Z,9.70
2023-02-21T22:10:54.913Z,9.61
2023-02-21T22:13:21.833Z,9.62
2023-02-21T22:15:48.675Z,9.55
2023-02-21T22:18:19.452Z,9.51
2023-02-21T22:20:50.273Z,9.47
2023-02-21T22:23:21.051Z,9.49
2023-02-21T22:25:47.510Z,9.48
2023-02-21T22:28:13.925Z,9.58
2023-02-21T22:30:40.761Z,9.52
2023-02-21T22:33:13.281Z,9.54
2023-02-21T22:35:40.574Z,9.61
2023-02-21T22:38:07.628Z,9.58
2023-02-21T22:40:36.658Z,9.55
2023-02-21T22:43:05.568Z,9.50
2023-02-21T22:45:34.810Z,9.46
2023-02-21T22:48:04.249Z,9.43
2023-02-21T22:50:37.013Z,9.49
2023-02-21T22:53:08.021Z,9.48
2023-02-21T22:55:36.883Z,9.44
2023-02-21T22:58:06.625Z,9.35
2023-02-21T23:00:34.556Z,9.40
2023-02-21T23:03:03.225Z,9.40
2023-02-21T23:05:29.691Z,9.28
2023-02-21T23:08:00.441Z,9.29
2023-02-21T23:10:28.411Z,9.20
2023-02-21T23:12:58.167Z,9.35
2023-02-21T23:15:25.419Z,9.24
2023-02-21T23:17:52.232Z,9.33
2023-02-21T23:20:22.195Z,9.35
2023-02-21T23:22:53.727Z,9.39
2023-02-21T23:25:26.016Z,9.38
2023-02-21T23:27:57.534Z,9.46
2023-02-21T23:30:36.221Z,9.42
2023-02-21T23:33:02.646Z,9.28
2023-02-21T23:35:29.014Z,9.27
2023-02-21T23:37:55.384Z,9.31
2023-02-21T23:40:24.782Z,9.35
2023-02-21T23:42:54.538Z,9.40
2023-02-21T23:45:23.801Z,9.38
2023-02-21T23:47:52.952Z,9.31
2023-02-21T23:50:33.181Z,9.21
2023-02-21T23:52:59.949Z,9.28
2023-02-21T23:55:29.949Z,9.20
2023-02-21T23:58:00.547Z,9.32
